createdAt,value
2024-04-18T00:01:01.777Z,38.78
2024-04-18T00:03:48.759Z,39.34
2024-04-18T00:06:35.358Z,38.92
2024-04-18T00:09:35.606Z,39.34
2024-04-18T00:12:23.094Z,39.44
2024-04-18T00:15:10.004Z,39.29
2024-04-18T00:17:57.580Z,39.18
2024-04-18T00:20:45.735Z,39.07
2024-04-18T00:23:55.313Z,38.72
2024-04-18T00:27:01.805Z,39.19
2024-04-18T00:29:57.315Z,39.33
2024-04-18T00:32:43.759Z,39.39
2024-04-18T00:35:48.993Z,39.48
2024-04-18T00:38:35.279Z,39.28
2024-04-18T00:41:21.504Z,39.53
2024-04-18T00:44:16.868Z,39.14
2024-04-18T00:47:03.731Z,39.60
2024-04-18T00:49:52.938Z,39.82
2024-04-18T00:52:57.927Z,39.35
2024-04-18T00:55:47.687Z,39.63
2024-04-18T00:58:34.328Z,39.58
2024-04-18T01:01:38.240Z,39.66
2024-04-18T01:04:24.913Z,39.96
2024-04-18T01:07:30.341Z,39.50
2024-04-18T01:10:36.524Z,39.72
2024-04-18T01:13:23.750Z,39.59
2024-04-18T01:16:28.953Z,39.60
2024-04-18T01:19:20.148Z,39.86
2024-04-18T01:22:06.455Z,39.87
2024-04-18T01:24:52.672Z,39.90
2024-04-18T01:27:39.067Z,39.97
2024-04-18T01:30:25.418Z,39.65
2024-04-18T01:33:27.221Z,39.84
2024-04-18T01:36:13.820Z,39.75
2024-04-18T01:39:10.198Z,39.74
2024-04-18T01:41:56.554Z,40.10
2024-04-18T01:45:01.431Z,39.72
2024-04-18T01:47:57.116Z,39.79
2024-04-18T01:51:00.057Z,40.10
2024-04-18T01:53:52.388Z,40.21
2024-04-18T01:56:41.923Z,40.00
2024-04-18T01:59:41.308Z,40.13
2024-04-18T02:02:27.911Z,40.03
2024-04-18T02:05:29.720Z,40.02
2024-04-18T02:08:33.279Z,40.41
2024-04-18T02:11:37.790Z,40.60
2024-04-18T02:14:31.338Z,40.32
2024-04-18T02:17:17.707Z,40.46
2024-04-18T02:20:21.957Z,40.29
2024-04-18T02:23:08.292Z,40.06
2024-04-18T02:26:09.881Z,40.02
2024-04-18T02:28:56.387Z,40.29
2024-04-18T02:31:46.322Z,40.48
2024-04-18T02:34:49.765Z,40.35
2024-04-18T02:37:45.403Z,40.18
2024-04-18T02:40:31.796Z,40.03
2024-04-18T02:43:21.204Z,40.14
2024-04-18T02:46:07.535Z,40.30
2024-04-18T02:48:53.980Z,40.06
2024-04-18T02:51:43.379Z,40.00
2024-04-18T02:54:32.929Z,39.84
2024-04-18T02:57:19.137Z,40.64
2024-04-18T03:00:07.385Z,40.19
2024-04-18T03:02:54.043Z,40.88
2024-04-18T03:05:40.383Z,41.58
2024-04-18T03:08:26.569Z,41.03
2024-04-18T03:11:14.047Z,40.56
2024-04-18T03:14:20.656Z,41.06
2024-04-18T03:17:25.218Z,40.97
2024-04-18T03:20:23.750Z,40.94
2024-04-18T03:23:30.120Z,40.73
2024-04-18T03:26:22.358Z,41.17
2024-04-18T03:29:08.833Z,40.86
2024-04-18T03:32:16.848Z,40.68
2024-04-18T03:35:04.797Z,40.62
2024-04-18T03:37:51.032Z,40.42
2024-04-18T03:40:57.429Z,40.59
2024-04-18T03:43:43.588Z,40.57
2024-04-18T03:46:30.122Z,40.60
2024-04-18T03:49:19.713Z,40.34
2024-04-18T03:52:06.339Z,40.46
2024-04-18T03:55:01.240Z,40.42
2024-04-18T03:58:01.242Z,40.15
2024-04-18T04:01:06.634Z,40.58
2024-04-18T04:03:54.379Z,40.53
2024-04-18T04:06:57.990Z,40.63
2024-04-18T04:09:44.239Z,40.31
2024-04-18T04:12:30.708Z,40.72
2024-04-18T04:15:27.515Z,40.59
2024-04-18T04:18:24.925Z,40.55
2024-04-18T04:21:31.212Z,40.58
2024-04-18T04:24:18.203Z,40.82
2024-04-18T04:27:10.405Z,40.72
2024-04-18T04:29:57.335Z,40.67
2024-04-18T04:32:44.901Z,40.63
2024-04-18T04:35:51.251Z,40.36
2024-04-18T04:38:40.083Z,40.44
2024-04-18T04:41:27.458Z,40.81
2024-04-18T04:44:13.898Z,40.75
2024-04-18T04:47:09.423Z,40.79
2024-04-18T04:50:07.839Z,40.55
2024-04-18T04:52:57.303Z,40.69
2024-04-18T04:55:43.593Z,40.48
2024-04-18T04:58:30.084Z,41.03
2024-04-18T05:01:16.423Z,40.57
2024-04-18T05:04:03.522Z,40.61
2024-04-18T05:06:50.060Z,40.49
2024-04-18T05:09:36.535Z,40.92
2024-04-18T05:12:22.795Z,40.80
2024-04-18T05:15:10.075Z,40.99
2024-04-18T05:18:16.535Z,41.12
2024-04-18T05:21:02.935Z,41.23
2024-04-18T05:23:49.151Z,40.81
2024-04-18T05:26:36.018Z,41.38
2024-04-18T05:29:42.327Z,40.86
2024-04-18T05:32:28.724Z,40.97
2024-04-18T05:35:30.525Z,41.15
2024-04-18T05:38:16.754Z,41.02
2024-04-18T05:41:05.409Z,41.23
2024-04-18T05:44:12.074Z,41.02
2024-04-18T05:46:58.464Z,40.89
2024-04-18T05:49:45.454Z,41.35
2024-04-18T05:52:31.732Z,40.92
2024-04-18T05:55:38.187Z,40.93
2024-04-18T05:58:24.701Z,40.85
2024-04-18T06:01:14.627Z,41.05
2024-04-18T06:04:01.532Z,40.69
2024-04-18T06:06:49.752Z,40.93
2024-04-18T06:09:39.393Z,40.81
2024-04-18T06:12:25.907Z,41.00
2024-04-18T06:15:12.637Z,40.74
2024-04-18T06:17:59.055Z,40.53
2024-04-18T06:20:47.086Z,40.38
2024-04-18T06:23:33.259Z,40.29
2024-04-18T06:26:37.856Z,40.23
2024-04-18T06:29:24.526Z,40.24
2024-04-18T06:32:10.914Z,39.86
2024-04-18T06:34:57.363Z,40.11
2024-04-18T06:37:43.906Z,40.10
2024-04-18T06:40:30.826Z,39.73
2024-04-18T06:43:17.174Z,40.10
2024-04-18T06:46:03.602Z,39.77
2024-04-18T06:48:50.103Z,39.88
2024-04-18T06:51:36.590Z,39.84
2024-04-18T06:54:23.112Z,39.85
2024-04-18T06:57:09.299Z,39.68
2024-04-18T06:59:55.769Z,39.58
2024-04-18T07:02:42.352Z,39.08
2024-04-18T07:05:47.267Z,39.25
2024-04-18T07:08:42.677Z,39.08
2024-04-18T07:11:48.977Z,39.07
2024-04-18T07:14:35.480Z,39.43
2024-04-18T07:17:30.920Z,39.20
2024-04-18T07:20:23.327Z,39.32
2024-04-18T07:23:24.944Z,39.10
2024-04-18T07:26:22.009Z,39.11
2024-04-18T07:29:08.502Z,39.45
2024-04-18T07:31:54.959Z,39.06
2024-04-18T07:34:41.246Z,39.21
2024-04-18T07:37:32.354Z,39.07
2024-04-18T07:40:22.604Z,38.77
2024-04-18T07:43:09.099Z,38.94
2024-04-18T07:45:55.546Z,38.87
2024-04-18T07:48:42.088Z,38.66
2024-04-18T07:51:28.770Z,38.35
2024-04-18T07:54:16.068Z,38.22
2024-04-18T07:57:02.932Z,38.15
2024-04-18T07:59:50.416Z,38.09
2024-04-18T08:02:38.755Z,37.73
2024-04-18T08:05:28.175Z,37.77
2024-04-18T08:08:17.812Z,37.42
2024-04-18T08:14:04.929Z,37.61
2024-04-18T08:16:53.989Z,37.42
2024-04-18T08:19:40.227Z,37.24
2024-04-18T08:22:26.665Z,37.61
2024-04-18T08:25:13.061Z,37.32
2024-04-18T08:27:59.441Z,37.53
2024-04-18T08:30:47.026Z,37.36
2024-04-18T08:33:33.218Z,37.64
2024-04-18T08:36:19.470Z,37.52
2024-04-18T08:39:06.054Z,37.41
2024-04-18T08:41:53.281Z,37.58
2024-04-18T08:44:39.555Z,37.54
2024-04-18T08:47:29.667Z,37.00
2024-04-18T08:50:16.568Z,37.68
2024-04-18T08:53:03.700Z,38.11
2024-04-18T08:55:53.403Z,37.77
2024-04-18T08:58:39.887Z,37.74
2024-04-18T09:01:26.533Z,37.50
2024-04-18T09:04:12.958Z,37.64
2024-04-18T09:06:59.320Z,37.46
2024-04-18T09:09:45.991Z,37.62
2024-04-18T09:12:32.726Z,37.23
2024-04-18T09:15:19.236Z,36.73
2024-04-18T09:18:07.509Z,37.05
2024-04-18T09:20:53.618Z,37.06
2024-04-18T09:23:42.010Z,36.73
2024-04-18T09:26:31.570Z,36.52
2024-04-18T09:29:18.493Z,37.05
2024-04-18T09:32:05.283Z,36.77
2024-04-18T09:34:52.786Z,36.49
2024-04-18T09:37:46.999Z,36.42
2024-04-18T09:40:44.492Z,35.52
2024-04-18T09:44:02.888Z,36.45
2024-04-18T09:46:51.964Z,36.74
2024-04-18T09:49:38.855Z,36.69
2024-04-18T09:52:26.783Z,36.63
2024-04-18T09:55:15.337Z,36.33
2024-04-18T09:58:01.524Z,36.37
2024-04-18T10:00:49.031Z,36.57
2024-04-18T10:03:35.342Z,36.34
2024-04-18T10:06:24.753Z,36.37
2024-04-18T10:09:13.456Z,36.29
2024-04-18T10:12:01.004Z,36.15
2024-04-18T10:14:47.300Z,35.76
2024-04-18T10:17:34.207Z,35.71
2024-04-18T10:20:20.486Z,35.33
2024-04-18T10:23:06.934Z,35.05
2024-04-18T10:26:00.276Z,34.99
2024-04-18T10:28:48.318Z,35.13
2024-04-18T10:31:39.902Z,34.42
2024-04-18T10:34:28.069Z,33.95
2024-04-18T10:37:21.539Z,34.06
2024-04-18T10:40:08.947Z,34.06
2024-04-18T10:43:17.528Z,34.12
2024-04-18T10:46:16.674Z,33.98
2024-04-18T10:49:03.539Z,33.85
2024-04-18T10:51:51.657Z,34.17
2024-04-18T10:54:38.084Z,34.15
2024-04-18T10:57:24.448Z,33.48
2024-04-18T11:00:17.696Z,33.48
2024-04-18T11:03:04.150Z,33.50
2024-04-18T11:05:51.489Z,33.27
2024-04-18T11:08:42.052Z,33.21
2024-04-18T11:11:33.412Z,32.92
2024-04-18T11:14:20.042Z,32.99
2024-04-18T11:17:07.593Z,32.80
2024-04-18T11:19:53.678Z,32.50
2024-04-18T11:22:40.814Z,32.71
2024-04-18T11:25:28.115Z,32.97
2024-04-18T11:28:23.406Z,32.75
2024-04-18T11:31:09.705Z,32.56
2024-04-18T11:33:57.750Z,32.50
2024-04-18T11:36:44.845Z,32.45
2024-04-18T11:39:31.674Z,32.63
2024-04-18T11:42:17.995Z,32.25
2024-04-18T11:45:04.825Z,32.33
2024-04-18T11:48:00.148Z,32.38
2024-04-18T11:50:46.555Z,32.28
2024-04-18T11:53:33.116Z,31.81
2024-04-18T11:56:19.125Z,31.77
2024-04-18T11:59:05.519Z,31.31
2024-04-18T12:01:52.496Z,30.90
2024-04-18T12:04:41.926Z,31.30
2024-04-18T12:07:35.254Z,31.24
2024-04-18T12:10:21.813Z,30.93
2024-04-18T12:13:22.371Z,31.00
2024-04-18T12:16:12.806Z,31.67
2024-04-18T12:18:58.988Z,32.75
2024-04-18T12:21:45.492Z,33.22
2024-04-18T12:24:31.862Z,31.90
2024-04-18T12:27:27.358Z,31.40
2024-04-18T12:30:13.626Z,30.45
2024-04-18T12:33:00.063Z,30.12
2024-04-18T12:35:49.069Z,30.33
2024-04-18T12:38:35.383Z,30.38
2024-04-18T12:41:21.892Z,30.20
2024-04-18T12:44:08.277Z,30.24
2024-04-18T12:47:07.618Z,28.81
2024-04-18T12:50:05.695Z,28.25
2024-04-18T12:52:52.073Z,28.30
2024-04-18T12:55:38.402Z,29.54
2024-04-18T12:58:25.156Z,28.15
2024-04-18T13:01:25.915Z,25.80
2024-04-18T13:04:13.526Z,24.08
2024-04-18T13:07:07.222Z,22.52
2024-04-18T13:09:55.391Z,20.43
2024-04-18T13:12:41.966Z,19.02
2024-04-18T13:15:50.660Z,18.13
2024-04-18T13:18:38.994Z,17.42
2024-04-18T13:21:25.425Z,17.42
2024-04-18T13:24:14.131Z,17.67
2024-04-18T13:27:23.184Z,18.72
2024-04-18T13:30:12.944Z,19.38
2024-04-18T13:32:59.994Z,20.19
2024-04-18T13:35:47.178Z,20.62
2024-04-18T13:38:34.018Z,21.36
2024-04-18T13:41:21.890Z,21.56
2024-04-18T13:44:08.305Z,21.80
2024-04-18T13:47:00.794Z,23.12
2024-04-18T13:49:59.346Z,23.35
2024-04-18T13:52:46.857Z,22.16
2024-04-18T13:55:33.238Z,20.13
2024-04-18T13:58:21.479Z,19.11
2024-04-18T14:01:17.234Z,19.00
2024-04-18T14:04:21.009Z,19.71
2024-04-18T14:07:07.537Z,20.22
2024-04-18T14:09:56.028Z,20.32
2024-04-18T14:13:02.551Z,19.09
2024-04-18T14:16:25.781Z,17.61
2024-04-18T14:19:17.004Z,16.57
2024-04-18T14:22:03.256Z,16.34
2024-04-18T14:24:49.618Z,16.08
2024-04-18T14:27:51.979Z,15.55
2024-04-18T14:30:56.680Z,14.93
2024-04-18T14:33:43.362Z,15.38
2024-04-18T14:36:30.123Z,15.34
2024-04-18T14:39:16.544Z,15.91
2024-04-18T14:42:03.372Z,16.60
2024-04-18T14:44:50.036Z,17.11
2024-04-18T14:47:40.614Z,18.04
2024-04-18T14:50:27.070Z,18.06
2024-04-18T14:53:43.799Z,17.38
2024-04-18T14:56:31.407Z,17.34
2024-04-18T14:59:22.395Z,17.82
2024-04-18T15:02:08.952Z,17.86
2024-04-18T15:05:20.330Z,17.98
2024-04-18T15:08:18.840Z,18.44
2024-04-18T15:11:13.785Z,18.60
2024-04-18T15:14:20.215Z,19.22
2024-04-18T15:17:12.096Z,19.45
2024-04-18T15:19:58.631Z,19.51
2024-04-18T15:23:21.352Z,19.63
2024-04-18T15:26:15.242Z,19.59
2024-04-18T15:29:02.484Z,19.95
2024-04-18T15:32:09.301Z,20.02
2024-04-18T15:35:06.018Z,20.33
2024-04-18T15:37:55.337Z,20.05
2024-04-18T15:40:50.764Z,20.27
2024-04-18T15:43:38.540Z,20.65
2024-04-18T15:46:25.285Z,20.91
2024-04-18T15:49:26.109Z,21.02
2024-04-18T15:52:15.602Z,21.14
2024-04-18T15:55:15.923Z,21.27
2024-04-18T15:58:15.410Z,21.19
2024-04-18T16:01:01.994Z,21.61
2024-04-18T16:03:51.818Z,21.42
2024-04-18T16:06:49.643Z,21.69
2024-04-18T16:10:00.978Z,22.25
2024-04-18T16:12:48.918Z,22.19
2024-04-18T16:20:30.570Z,22.79
2024-04-18T16:24:48.465Z,22.72
2024-04-18T16:27:37.280Z,23.59
2024-04-18T16:30:26.543Z,23.64
2024-04-18T16:33:13.118Z,23.85
2024-04-18T16:36:07.210Z,24.19
2024-04-18T16:40:19.424Z,24.56
2024-04-18T16:43:18.043Z,24.79
2024-04-18T16:46:40.255Z,25.11
2024-04-18T16:49:26.497Z,25.46
2024-04-18T16:52:19.415Z,25.63
2024-04-18T16:55:29.088Z,25.66
2024-04-18T16:58:35.603Z,25.95
2024-04-18T17:01:22.764Z,27.45
2024-04-18T17:04:09.318Z,27.35
2024-04-18T17:06:56.838Z,29.56
2024-04-18T17:09:43.529Z,28.08
2024-04-18T17:12:35.309Z,30.98
2024-04-18T17:15:40.521Z,32.08
2024-04-18T17:18:28.077Z,31.90
2024-04-18T17:21:16.884Z,31.04
2024-04-18T17:24:04.039Z,29.68
2024-04-18T17:26:50.569Z,30.42
2024-04-18T17:29:37.527Z,30.66
2024-04-18T17:32:25.004Z,30.18
2024-04-18T17:35:47.750Z,30.42
2024-04-18T17:38:34.351Z,29.71
2024-04-18T17:41:20.725Z,29.72
2024-04-18T17:44:14.729Z,29.83
2024-04-18T17:47:13.823Z,29.57
2024-04-18T17:50:01.382Z,29.77
2024-04-18T17:52:47.729Z,30.92
2024-04-18T17:55:39.411Z,32.78
2024-04-18T17:58:26.050Z,30.65
2024-04-18T18:01:21.158Z,30.30
2024-04-18T18:04:32.851Z,30.59
2024-04-18T18:07:27.763Z,30.69
2024-04-18T18:10:14.451Z,30.29
2024-04-18T18:18:01.095Z,30.41
2024-04-18T18:20:47.503Z,30.35
2024-04-18T18:23:33.741Z,30.38
2024-04-18T18:26:20.462Z,30.50
2024-04-18T18:29:09.366Z,30.42
2024-04-18T18:32:24.972Z,30.50
2024-04-18T18:35:12.027Z,30.89
2024-04-18T18:37:58.401Z,30.85
2024-04-18T18:40:45.715Z,30.68
2024-04-18T18:43:44.068Z,30.88
2024-04-18T18:46:30.416Z,30.95
2024-04-18T18:49:35.471Z,30.89
2024-04-18T18:52:22.186Z,31.13
2024-04-18T18:55:08.473Z,31.21
2024-04-18T18:57:56.114Z,31.13
2024-04-18T19:00:42.902Z,31.31
2024-04-18T19:03:30.682Z,31.22
2024-04-18T19:06:33.214Z,31.41
2024-04-18T19:09:19.943Z,31.68
2024-04-18T19:12:08.405Z,31.59
2024-04-18T19:14:55.153Z,31.80
2024-04-18T19:17:47.983Z,31.69
2024-04-18T19:20:34.323Z,31.75
2024-04-18T19:23:22.379Z,31.67
2024-04-18T19:26:13.126Z,31.93
2024-04-18T19:28:59.512Z,32.02
2024-04-18T19:31:45.878Z,32.08
2024-04-18T19:34:32.531Z,32.05
2024-04-18T19:37:18.999Z,32.05
2024-04-18T19:40:05.593Z,31.96
2024-04-18T19:42:51.908Z,32.38
2024-04-18T19:45:38.508Z,32.33
2024-04-18T19:48:25.287Z,32.38
2024-04-18T19:51:11.644Z,32.34
2024-04-18T19:53:57.859Z,32.36
2024-04-18T19:56:45.799Z,32.49
2024-04-18T19:59:32.593Z,32.59
2024-04-18T20:02:18.855Z,32.75
2024-04-18T20:05:07.258Z,32.65
2024-04-18T20:07:53.783Z,32.71
2024-04-18T20:10:41.144Z,32.67
2024-04-18T20:13:27.868Z,32.87
2024-04-18T20:16:15.520Z,32.82
2024-04-18T20:19:02.148Z,33.22
2024-04-18T20:21:50.258Z,33.12
2024-04-18T20:24:36.582Z,33.14
2024-04-18T20:27:50.681Z,33.46
2024-04-18T20:30:37.280Z,33.46
2024-04-18T20:33:24.435Z,33.51
2024-04-18T20:36:11.368Z,33.52
2024-04-18T20:38:58.707Z,33.83
2024-04-18T20:41:48.177Z,33.59
2024-04-18T20:44:34.724Z,33.71
2024-04-18T20:47:22.955Z,33.78
2024-04-18T20:50:09.598Z,33.95
2024-04-18T20:52:57.192Z,34.05
2024-04-18T20:55:43.590Z,33.94
2024-04-18T20:58:31.975Z,34.20
2024-04-18T21:01:19.259Z,34.25
2024-04-18T21:04:06.271Z,34.22
2024-04-18T21:06:52.643Z,34.12
2024-04-18T21:09:40.380Z,34.64
2024-04-18T21:12:27.939Z,34.29
2024-04-18T21:15:14.527Z,34.37
2024-04-18T21:18:00.881Z,34.45
2024-04-18T21:20:49.792Z,34.81
2024-04-18T21:23:36.268Z,34.96
2024-04-18T21:26:22.768Z,34.93
2024-04-18T21:29:09.074Z,34.99
2024-04-18T21:31:55.571Z,34.86
2024-04-18T21:34:42.476Z,34.80
2024-04-18T21:37:29.120Z,34.97
2024-04-18T21:40:15.489Z,35.19
2024-04-18T21:43:04.148Z,35.21
2024-04-18T21:45:50.959Z,35.24
2024-04-18T21:48:37.732Z,35.19
2024-04-18T21:51:24.022Z,35.50
2024-04-18T21:54:10.768Z,35.20
2024-04-18T21:56:58.752Z,35.66
2024-04-18T21:59:45.384Z,35.40
2024-04-18T22:02:31.665Z,35.44
2024-04-18T22:05:18.345Z,35.58
2024-04-18T22:08:05.072Z,35.38
2024-04-18T22:10:51.684Z,35.49
2024-04-18T22:13:37.902Z,35.53
2024-04-18T22:16:24.402Z,35.70
2024-04-18T22:19:11.397Z,35.94
2024-04-18T22:21:58.835Z,35.66
2024-04-18T22:24:45.357Z,35.64
2024-04-18T22:27:31.802Z,35.67
2024-04-18T22:30:18.393Z,35.96
2024-04-18T22:33:04.760Z,36.05
2024-04-18T22:35:57.689Z,36.13
2024-04-18T22:38:47.118Z,36.05
2024-04-18T22:41:34.769Z,36.04
2024-04-18T22:44:22.306Z,36.08
2024-04-18T22:47:10.724Z,36.20
2024-04-18T22:49:57.176Z,36.33
2024-04-18T22:52:43.530Z,36.30
2024-04-18T22:55:30.047Z,36.56
2024-04-18T22:58:16.031Z,36.17
2024-04-18T23:01:21.044Z,36.49
2024-04-18T23:04:07.565Z,36.36
2024-04-18T23:06:54.385Z,36.44
2024-04-18T23:09:40.631Z,36.66
2024-04-18T23:12:27.063Z,36.31
2024-04-18T23:15:13.574Z,36.82
2024-04-18T23:17:59.995Z,36.49
2024-04-18T23:20:46.585Z,36.71
2024-04-18T23:23:32.903Z,36.65
2024-04-18T23:26:19.303Z,36.70
2024-04-18T23:29:05.539Z,36.56
2024-04-18T23:31:53.957Z,36.86
2024-04-18T23:34:40.618Z,36.64
2024-04-18T23:37:28.034Z,36.73
2024-04-18T23:40:14.428Z,36.90
2024-04-18T23:43:00.644Z,36.59
2024-04-18T23:45:47.111Z,36.90
2024-04-18T23:48:35.737Z,36.84
2024-04-18T23:51:22.480Z,36.73
2024-04-18T23:54:10.396Z,36.54
2024-04-18T23:56:57.189Z,36.88
2024-04-18T23:59:43.196Z,36.78
